sensor_id;sensor_type;location;lat;lon;timestamp;pressure;altitude;pressure_sealevel;temperature;humidity
61571;BME280;47463;49.884;10.010;2024-03-25T00:00:01;100980;;;5.5;68
61571;BME280;47463;49.884;10.010;2024-03-25T00:05:01;100980;;;5.4;68
61571;BME280;47463;49.884;10.010;2024-03-25T00:10:01;100980;;;5.5;68
61571;BME280;47463;49.884;10.010;2024-03-25T00:15:01;100990;;;5.4;68
61571;BME280;47463;49.884;10.010;2024-03-25T00:20:01;100990;;;5.4;68
61571;BME280;47463;49.884;10.010;2024-03-25T00:25:01;100990;;;5.4;68
61571;BME280;47463;49.884;10.010;2024-03-25T00:30:01;101000;;;5.4;68
61571;BME280;47463;49.884;10.010;2024-03-25T00:35:01;100990;;;5.3;69
61571;BME280;47463;49.884;10.010;2024-03-25T00:40:01;100990;;;5.3;69
61571;BME280;47463;49.884;10.010;2024-03-25T00:45:01;101000;;;5.4;68
61571;BME280;47463;49.884;10.010;2024-03-25T00:50:01;100980;;;5.3;68
61571;BME280;47463;49.884;10.010;2024-03-25T00:55:01;100990;;;5.3;69
61571;BME280;47463;49.884;10.010;2024-03-25T01:00:01;101000;;;5.3;68
61571;BME280;47463;49.884;10.010;2024-03-25T01:05:01;101000;;;5.3;69
61571;BME280;47463;49.884;10.010;2024-03-25T01:10:01;101000;;;5.3;69
61571;BME280;47463;49.884;10.010;2024-03-25T01:15:01;100990;;;5.2;69
61571;BME280;47463;49.884;10.010;2024-03-25T01:20:01;100990;;;5.1;69
61571;BME280;47463;49.884;10.010;2024-03-25T01:25:01;100990;;;5.1;69
61571;BME280;47463;49.884;10.010;2024-03-25T01:30:01;100990;;;5;69
61571;BME280;47463;49.884;10.010;2024-03-25T01:35:01;100990;;;4.9;69
61571;BME280;47463;49.884;10.010;2024-03-25T01:40:01;100990;;;4.8;69
61571;BME280;47463;49.884;10.010;2024-03-25T01:45:01;101000;;;4.8;70
61571;BME280;47463;49.884;10.010;2024-03-25T01:50:01;101010;;;4.8;70
61571;BME280;47463;49.884;10.010;2024-03-25T01:55:01;101010;;;4.9;69
61571;BME280;47463;49.884;10.010;2024-03-25T02:00:01;101010;;;4.9;69
61571;BME280;47463;49.884;10.010;2024-03-25T02:05:01;101010;;;4.7;70
61571;BME280;47463;49.884;10.010;2024-03-25T02:10:01;101010;;;4.7;70
61571;BME280;47463;49.884;10.010;2024-03-25T02:15:01;101010;;;4.7;70
61571;BME280;47463;49.884;10.010;2024-03-25T02:20:01;101030;;;4.6;70
61571;BME280;47463;49.884;10.010;2024-03-25T02:25:01;101020;;;4.6;70
61571;BME280;47463;49.884;10.010;2024-03-25T02:30:01;101020;;;4.6;70
61571;BME280;47463;49.884;10.010;2024-03-25T02:35:01;101030;;;4.5;71
61571;BME280;47463;49.884;10.010;2024-03-25T02:40:01;101040;;;4.5;71
61571;BME280;47463;49.884;10.010;2024-03-25T02:45:01;101050;;;4.5;71
61571;BME280;47463;49.884;10.010;2024-03-25T02:50:01;101040;;;4.5;71
61571;BME280;47463;49.884;10.010;2024-03-25T02:55:01;101040;;;4.5;71
61571;BME280;47463;49.884;10.010;2024-03-25T03:00:01;101040;;;4.5;72
61571;BME280;47463;49.884;10.010;2024-03-25T03:05:01;101040;;;4.5;71
61571;BME280;47463;49.884;10.010;2024-03-25T03:10:01;101040;;;4.4;71
61571;BME280;47463;49.884;10.010;2024-03-25T03:15:01;101050;;;4.4;71
61571;BME280;47463;49.884;10.010;2024-03-25T03:20:01;101050;;;4.4;71
61571;BME280;47463;49.884;10.010;2024-03-25T03:25:01;101050;;;4.2;72
61571;BME280;47463;49.884;10.010;2024-03-25T03:30:01;101050;;;4.2;72
61571;BME280;47463;49.884;10.010;2024-03-25T03:35:01;101050;;;4;73
61571;BME280;47463;49.884;10.010;2024-03-25T03:40:01;101060;;;3.9;73
61571;BME280;47463;49.884;10.010;2024-03-25T03:45:01;101050;;;3.9;73
61571;BME280;47463;49.884;10.010;2024-03-25T03:50:01;101050;;;3.9;73
61571;BME280;47463;49.884;10.010;2024-03-25T03:55:01;101050;;;3.9;73
61571;BME280;47463;49.884;10.010;2024-03-25T04:00:01;101060;;;3.9;73
61571;BME280;47463;49.884;10.010;2024-03-25T04:05:01;101070;;;4;73
61571;BME280;47463;49.884;10.010;2024-03-25T04:10:01;101060;;;4;72
61571;BME280;47463;49.884;10.010;2024-03-25T04:15:01;101080;;;4.1;72
61571;BME280;47463;49.884;10.010;2024-03-25T04:20:01;101080;;;4.2;71
61571;BME280;47463;49.884;10.010;2024-03-25T04:25:01;101080;;;4.2;70
61571;BME280;47463;49.884;10.010;2024-03-25T04:30:01;101070;;;4.2;70
61571;BME280;47463;49.884;10.010;2024-03-25T04:35:01;101080;;;4.3;70
61571;BME280;47463;49.884;10.010;2024-03-25T04:40:01;101080;;;4.3;70
61571;BME280;47463;49.884;10.010;2024-03-25T04:45:01;101080;;;4.2;70
61571;BME280;47463;49.884;10.010;2024-03-25T04:50:01;101070;;;4.2;70
61571;BME280;47463;49.884;10.010;2024-03-25T04:55:01;101090;;;4.1;70
61571;BME280;47463;49.884;10.010;2024-03-25T05:00:01;101090;;;4.1;71
61571;BME280;47463;49.884;10.010;2024-03-25T05:05:01;101100;;;4.1;71
61571;BME280;47463;49.884;10.010;2024-03-25T05:10:01;101100;;;4.1;71
61571;BME280;47463;49.884;10.010;2024-03-25T05:15:01;101110;;;4.1;70
61571;BME280;47463;49.884;10.010;2024-03-25T05:20:01;101120;;;4.1;70
61571;BME280;47463;49.884;10.010;2024-03-25T05:25:01;101120;;;4;71
61571;BME280;47463;49.884;10.010;2024-03-25T05:30:01;101120;;;4;71
61571;BME280;47463;49.884;10.010;2024-03-25T05:35:01;101120;;;4;71
61571;BME280;47463;49.884;10.010;2024-03-25T05:40:01;101120;;;4;71
61571;BME280;47463;49.884;10.010;2024-03-25T05:45:01;101130;;;3.9;71
61571;BME280;47463;49.884;10.010;2024-03-25T05:50:01;101130;;;3.9;71
61571;BME280;47463;49.884;10.010;2024-03-25T05:55:01;101110;;;3.9;71
61571;BME280;47463;49.884;10.010;2024-03-25T06:00:01;101130;;;3.8;72
61571;BME280;47463;49.884;10.010;2024-03-25T06:05:01;101140;;;3.7;72
61571;BME280;47463;49.884;10.010;2024-03-25T06:10:01;101150;;;3.7;72
61571;BME280;47463;49.884;10.010;2024-03-25T06:15:01;101140;;;3.6;73
61571;BME280;47463;49.884;10.010;2024-03-25T06:20:01;101150;;;3.6;73
61571;BME280;47463;49.884;10.010;2024-03-25T06:25:01;101150;;;3.7;72
61571;BME280;47463;49.884;10.010;2024-03-25T06:30:01;101160;;;3.7;72
61571;BME280;47463;49.884;10.010;2024-03-25T06:35:01;101160;;;3.4;75
61571;BME280;47463;49.884;10.010;2024-03-25T06:40:01;101170;;;3.5;75
61571;BME280;47463;49.884;10.010;2024-03-25T06:45:01;101160;;;3.6;75
61571;BME280;47463;49.884;10.010;2024-03-25T06:50:01;101170;;;3.9;74
61571;BME280;47463;49.884;10.010;2024-03-25T06:55:01;101170;;;4.3;73
61571;BME280;47463;49.884;10.010;2024-03-25T07:00:01;101170;;;4.5;71
61571;BME280;47463;49.884;10.010;2024-03-25T07:05:01;101170;;;4.6;71
61571;BME280;47463;49.884;10.010;2024-03-25T07:10:01;101180;;;4.7;70
61571;BME280;47463;49.884;10.010;2024-03-25T07:15:01;101170;;;4.6;71
61571;BME280;47463;49.884;10.010;2024-03-25T07:20:01;101170;;;4.6;71
61571;BME280;47463;49.884;10.010;2024-03-25T07:25:01;101180;;;4.7;71
61571;BME280;47463;49.884;10.010;2024-03-25T07:30:01;101180;;;4.7;72
61571;BME280;47463;49.884;10.010;2024-03-25T07:35:01;101190;;;4.8;71
61571;BME280;47463;49.884;10.010;2024-03-25T07:40:01;101200;;;4.9;71
61571;BME280;47463;49.884;10.010;2024-03-25T07:45:01;101200;;;5;71
61571;BME280;47463;49.884;10.010;2024-03-25T07:50:01;101200;;;5;71
61571;BME280;47463;49.884;10.010;2024-03-25T07:55:01;101200;;;5.3;71
61571;BME280;47463;49.884;10.010;2024-03-25T08:00:01;101190;;;5.2;70
61571;BME280;47463;49.884;10.010;2024-03-25T08:05:01;101210;;;5.2;71
61571;BME280;47463;49.884;10.010;2024-03-25T08:10:01;101210;;;5.3;71
61571;BME280;47463;49.884;10.010;2024-03-25T08:15:01;101210;;;5.3;71
61571;BME280;47463;49.884;10.010;2024-03-25T08:20:01;101220;;;5.4;68
61571;BME280;47463;49.884;10.010;2024-03-25T08:25:01;101220;;;5.4;66
61571;BME280;47463;49.884;10.010;2024-03-25T08:30:01;101230;;;5.5;64
61571;BME280;47463;49.884;10.010;2024-03-25T08:35:01;101230;;;5.6;63
61571;BME280;47463;49.884;10.010;2024-03-25T08:40:01;101220;;;6.2;64
61571;BME280;47463;49.884;10.010;2024-03-25T08:45:01;101220;;;6.3;63
61571;BME280;47463;49.884;10.010;2024-03-25T08:50:01;101220;;;6.1;63
61571;BME280;47463;49.884;10.010;2024-03-25T08:55:01;101220;;;6.4;62
61571;BME280;47463;49.884;10.010;2024-03-25T09:00:01;101220;;;6.4;60
61571;BME280;47463;49.884;10.010;2024-03-25T09:05:01;101210;;;6.9;60
61571;BME280;47463;49.884;10.010;2024-03-25T09:10:01;101200;;;7;60
61571;BME280;47463;49.884;10.010;2024-03-25T09:15:01;101200;;;6.6;60
61571;BME280;47463;49.884;10.010;2024-03-25T09:20:01;101210;;;6.6;57
61571;BME280;47463;49.884;10.010;2024-03-25T09:25:01;101210;;;6.4;58
61571;BME280;47463;49.884;10.010;2024-03-25T09:30:01;101210;;;6.4;59
61571;BME280;47463;49.884;10.010;2024-03-25T09:35:01;101200;;;6.3;58
61571;BME280;47463;49.884;10.010;2024-03-25T09:40:01;101210;;;6.4;57
61571;BME280;47463;49.884;10.010;2024-03-25T09:45:01;101210;;;6.3;58
61571;BME280;47463;49.884;10.010;2024-03-25T09:50:01;101200;;;6.3;59
61571;BME280;47463;49.884;10.010;2024-03-25T09:55:01;101200;;;6.5;59
61571;BME280;47463;49.884;10.010;2024-03-25T10:00:01;101190;;;6.6;59
61571;BME280;47463;49.884;10.010;2024-03-25T10:05:01;101180;;;6.5;58
61571;BME280;47463;49.884;10.010;2024-03-25T10:10:03;101160;;;6.6;58
61571;BME280;47463;49.884;10.010;2024-03-25T10:15:01;101160;;;6.8;57
61571;BME280;47463;49.884;10.010;2024-03-25T10:20:01;101150;;;7.3;55
61571;BME280;47463;49.884;10.010;2024-03-25T10:25:01;101140;;;7;55
61571;BME280;47463;49.884;10.010;2024-03-25T10:30:01;101130;;;7.8;57
61571;BME280;47463;49.884;10.010;2024-03-25T10:35:01;101120;;;8;53
61571;BME280;47463;49.884;10.010;2024-03-25T10:40:01;101110;;;7.6;53
61571;BME280;47463;49.884;10.010;2024-03-25T10:45:01;101100;;;8;53
61571;BME280;47463;49.884;10.010;2024-03-25T10:50:01;101100;;;7.8;54
61571;BME280;47463;49.884;10.010;2024-03-25T10:55:01;101090;;;7.7;53
61571;BME280;47463;49.884;10.010;2024-03-25T11:00:01;101080;;;7.7;52
61571;BME280;47463;49.884;10.010;2024-03-25T11:05:01;101070;;;8.2;52
61571;BME280;47463;49.884;10.010;2024-03-25T11:10:02;101060;;;7.9;50
61571;BME280;47463;49.884;10.010;2024-03-25T11:15:01;101060;;;7.7;50
61571;BME280;47463;49.884;10.010;2024-03-25T11:20:06;101060;;;7.9;53
61571;BME280;47463;49.884;10.010;2024-03-25T11:25:05;101050;;;8;52
61571;BME280;47463;49.884;10.010;2024-03-25T11:30:01;101050;;;8.2;52
61571;BME280;47463;49.884;10.010;2024-03-25T11:35:01;101050;;;8.2;48
61571;BME280;47463;49.884;10.010;2024-03-25T11:40:01;101040;;;8.5;50
61571;BME280;47463;49.884;10.010;2024-03-25T11:45:01;101030;;;8.7;49
61571;BME280;47463;49.884;10.010;2024-03-25T11:50:06;101030;;;8.9;50
61571;BME280;47463;49.884;10.010;2024-03-25T11:55:01;101020;;;8.8;48
61571;BME280;47463;49.884;10.010;2024-03-25T12:00:01;101010;;;9;50
61571;BME280;47463;49.884;10.010;2024-03-25T12:05:01;101010;;;9;48
61571;BME280;47463;49.884;10.010;2024-03-25T12:10:01;101010;;;9;49
61571;BME280;47463;49.884;10.010;2024-03-25T12:15:01;100990;;;9.3;48
61571;BME280;47463;49.884;10.010;2024-03-25T12:20:02;100980;;;9.5;48
61571;BME280;47463;49.884;10.010;2024-03-25T12:25:01;100980;;;9.4;47
61571;BME280;47463;49.884;10.010;2024-03-25T12:30:01;100980;;;9.4;45
61571;BME280;47463;49.884;10.010;2024-03-25T12:35:01;100980;;;9.6;43
61571;BME280;47463;49.884;10.010;2024-03-25T12:40:01;100960;;;9.3;43
61571;BME280;47463;49.884;10.010;2024-03-25T12:45:01;100950;;;9.2;44
61571;BME280;47463;49.884;10.010;2024-03-25T12:50:01;100950;;;9.2;43
61571;BME280;47463;49.884;10.010;2024-03-25T12:55:01;100940;;;9.4;44
61571;BME280;47463;49.884;10.010;2024-03-25T13:00:01;100930;;;9.8;46
61571;BME280;47463;49.884;10.010;2024-03-25T13:05:01;100930;;;10.3;44
61571;BME280;47463;49.884;10.010;2024-03-25T13:10:01;100910;;;11;43
61571;BME280;47463;49.884;10.010;2024-03-25T13:15:01;100890;;;11.1;41
61571;BME280;47463;49.884;10.010;2024-03-25T13:20:01;100890;;;11.2;40
61571;BME280;47463;49.884;10.010;2024-03-25T13:25:01;100890;;;10.5;40
61571;BME280;47463;49.884;10.010;2024-03-25T13:30:01;100880;;;10.5;42
61571;BME280;47463;49.884;10.010;2024-03-25T13:35:01;100860;;;11.1;42
61571;BME280;47463;49.884;10.010;2024-03-25T13:40:01;100860;;;11.1;40
61571;BME280;47463;49.884;10.010;2024-03-25T13:45:01;100860;;;10.5;38
61571;BME280;47463;49.884;10.010;2024-03-25T13:50:01;100850;;;10.6;43
61571;BME280;47463;49.884;10.010;2024-03-25T14:00:01;100829.9999;;;10.6;43
61571;BME280;47463;49.884;10.010;2024-03-25T14:05:01;100830;;;10.6;47
61571;BME280;47463;49.884;10.010;2024-03-25T14:10:01;100820;;;10.8;45
61571;BME280;47463;49.884;10.010;2024-03-25T14:15:01;100820;;;11;43
61571;BME280;47463;49.884;10.010;2024-03-25T14:20:01;100800;;;11.2;42
61571;BME280;47463;49.884;10.010;2024-03-25T14:25:01;100800;;;11.2;42
61571;BME280;47463;49.884;10.010;2024-03-25T14:30:01;100800;;;10.6;42
61571;BME280;47463;49.884;10.010;2024-03-25T14:35:01;100800;;;10.7;44
61571;BME280;47463;49.884;10.010;2024-03-25T14:40:01;100780;;;11.1;41
61571;BME280;47463;49.884;10.010;2024-03-25T14:45:01;100780;;;10.6;42
61571;BME280;47463;49.884;10.010;2024-03-25T14:50:01;100760;;;10.8;43
61571;BME280;47463;49.884;10.010;2024-03-25T14:55:01;100760;;;11.1;43
61571;BME280;47463;49.884;10.010;2024-03-25T15:00:01;100760;;;10.6;43
61571;BME280;47463;49.884;10.010;2024-03-25T15:05:01;100760;;;10;42
61571;BME280;47463;49.884;10.010;2024-03-25T15:10:01;100750;;;10.1;42
61571;BME280;47463;49.884;10.010;2024-03-25T15:15:02;100740;;;9.9;42
61571;BME280;47463;49.884;10.010;2024-03-25T15:20:02;100730;;;10.2;41
61571;BME280;47463;49.884;10.010;2024-03-25T15:25:01;100730;;;10;41
61571;BME280;47463;49.884;10.010;2024-03-25T15:30:01;100710;;;9.9;41
61571;BME280;47463;49.884;10.010;2024-03-25T15:35:01;100720;;;10.2;42
61571;BME280;47463;49.884;10.010;2024-03-25T15:40:01;100720;;;9.9;42
61571;BME280;47463;49.884;10.010;2024-03-25T15:45:01;100700;;;10.1;42
61571;BME280;47463;49.884;10.010;2024-03-25T15:50:01;100700;;;10.2;41
61571;BME280;47463;49.884;10.010;2024-03-25T15:55:01;100700;;;10.1;41
61571;BME280;47463;49.884;10.010;2024-03-25T16:00:01;100700;;;10.5;42
61571;BME280;47463;49.884;10.010;2024-03-25T16:05:01;100690;;;10.6;41
61571;BME280;47463;49.884;10.010;2024-03-25T16:10:01;100690;;;10;40
61571;BME280;47463;49.884;10.010;2024-03-25T16:15:01;100690;;;9.9;41
61571;BME280;47463;49.884;10.010;2024-03-25T16:20:01;100650;;;9.8;40
61571;BME280;47463;49.884;10.010;2024-03-25T16:25:01;100650;;;9.8;39
61571;BME280;47463;49.884;10.010;2024-03-25T16:30:01;100650;;;10;40
61571;BME280;47463;49.884;10.010;2024-03-25T16:35:01;100640;;;10.2;39
61571;BME280;47463;49.884;10.010;2024-03-25T16:40:01;100620;;;9.8;40
61571;BME280;47463;49.884;10.010;2024-03-25T16:45:01;100630;;;9.5;40
61571;BME280;47463;49.884;10.010;2024-03-25T16:50:01;100620;;;9.4;40
61571;BME280;47463;49.884;10.010;2024-03-25T16:55:01;100620;;;9.1;43
61571;BME280;47463;49.884;10.010;2024-03-25T17:00:01;100620;;;9;42
61571;BME280;47463;49.884;10.010;2024-03-25T17:05:01;100610;;;8.8;43
61571;BME280;47463;49.884;10.010;2024-03-25T17:10:01;100620;;;8.7;44
61571;BME280;47463;49.884;10.010;2024-03-25T17:15:01;100620;;;8.7;45
61571;BME280;47463;49.884;10.010;2024-03-25T17:20:01;100620;;;8.6;46
61571;BME280;47463;49.884;10.010;2024-03-25T17:25:01;100610;;;8.4;49
61571;BME280;47463;49.884;10.010;2024-03-25T17:30:01;100610;;;8.1;52
61571;BME280;47463;49.884;10.010;2024-03-25T17:35:01;100610;;;7.8;55
61571;BME280;47463;49.884;10.010;2024-03-25T17:40:01;100600;;;7.6;55
61571;BME280;47463;49.884;10.010;2024-03-25T17:45:01;100600;;;7.4;56
61571;BME280;47463;49.884;10.010;2024-03-25T17:50:01;100610;;;6.9;58
61571;BME280;47463;49.884;10.010;2024-03-25T17:55:01;100600;;;6.7;59
61571;BME280;47463;49.884;10.010;2024-03-25T18:00:01;100600;;;6.5;59
61571;BME280;47463;49.884;10.010;2024-03-25T18:05:01;100600;;;6.3;60
61571;BME280;47463;49.884;10.010;2024-03-25T18:10:01;100600;;;5.9;61
61571;BME280;47463;49.884;10.010;2024-03-25T18:15:01;100600;;;5.8;62
61571;BME280;47463;49.884;10.010;2024-03-25T18:20:01;100600;;;5.4;63
61571;BME280;47463;49.884;10.010;2024-03-25T18:25:01;100590;;;5.2;64
61571;BME280;47463;49.884;10.010;2024-03-25T18:30:01;100590;;;5;65
61571;BME280;47463;49.884;10.010;2024-03-25T18:35:01;100580;;;4.8;66
61571;BME280;47463;49.884;10.010;2024-03-25T18:40:01;100580;;;4.7;66
61571;BME280;47463;49.884;10.010;2024-03-25T18:45:01;100570;;;4.7;66
61571;BME280;47463;49.884;10.010;2024-03-25T18:50:01;100570;;;4.7;66
61571;BME280;47463;49.884;10.010;2024-03-25T18:55:01;100560;;;4.6;67
61571;BME280;47463;49.884;10.010;2024-03-25T19:00:01;100560;;;4.4;67
61571;BME280;47463;49.884;10.010;2024-03-25T19:05:01;100560;;;4.3;67
61571;BME280;47463;49.884;10.010;2024-03-25T19:10:01;100560;;;4.3;67
61571;BME280;47463;49.884;10.010;2024-03-25T19:15:01;100550;;;4.3;67
61571;BME280;47463;49.884;10.010;2024-03-25T19:20:01;100560;;;4.3;66
61571;BME280;47463;49.884;10.010;2024-03-25T19:25:01;100560;;;4.3;67
61571;BME280;47463;49.884;10.010;2024-03-25T19:30:01;100550;;;4.2;67
61571;BME280;47463;49.884;10.010;2024-03-25T19:35:01;100550;;;4.1;67
61571;BME280;47463;49.884;10.010;2024-03-25T19:40:01;100540;;;4.1;67
61571;BME280;47463;49.884;10.010;2024-03-25T19:45:01;100540;;;3.9;67
61571;BME280;47463;49.884;10.010;2024-03-25T19:50:01;100530;;;3.9;67
61571;BME280;47463;49.884;10.010;2024-03-25T19:55:01;100530;;;4;66
61571;BME280;47463;49.884;10.010;2024-03-25T20:00:01;100520;;;3.9;66
61571;BME280;47463;49.884;10.010;2024-03-25T20:05:01;100520;;;3.8;67
61571;BME280;47463;49.884;10.010;2024-03-25T20:10:01;100520;;;3.7;67
61571;BME280;47463;49.884;10.010;2024-03-25T20:15:01;100530;;;3.6;67
61571;BME280;47463;49.884;10.010;2024-03-25T20:20:01;100530;;;3.5;67
61571;BME280;47463;49.884;10.010;2024-03-25T20:25:01;100520;;;3.4;68
61571;BME280;47463;49.884;10.010;2024-03-25T20:30:01;100520;;;3.3;68
61571;BME280;47463;49.884;10.010;2024-03-25T20:35:01;100530;;;3.5;67
61571;BME280;47463;49.884;10.010;2024-03-25T20:40:01;100520;;;3.4;67
61571;BME280;47463;49.884;10.010;2024-03-25T20:45:01;100520;;;3;69
61571;BME280;47463;49.884;10.010;2024-03-25T20:50:01;100510;;;2.9;70
61571;BME280;47463;49.884;10.010;2024-03-25T20:55:01;100510;;;2.8;70
61571;BME280;47463;49.884;10.010;2024-03-25T21:00:01;100500;;;2.8;70
61571;BME280;47463;49.884;10.010;2024-03-25T21:05:01;100490;;;2.8;70
61571;BME280;47463;49.884;10.010;2024-03-25T21:10:01;100490;;;2.8;70
61571;BME280;47463;49.884;10.010;2024-03-25T21:15:01;100480;;;2.7;70
61571;BME280;47463;49.884;10.010;2024-03-25T21:20:01;100490;;;2.8;70
61571;BME280;47463;49.884;10.010;2024-03-25T21:25:01;100470;;;2.7;70
61571;BME280;47463;49.884;10.010;2024-03-25T21:30:01;100470;;;2.7;70
61571;BME280;47463;49.884;10.010;2024-03-25T21:35:01;100470;;;2.7;70
61571;BME280;47463;49.884;10.010;2024-03-25T21:40:01;100470;;;2.6;70
61571;BME280;47463;49.884;10.010;2024-03-25T21:45:01;100470;;;2.5;70
61571;BME280;47463;49.884;10.010;2024-03-25T21:50:01;100460;;;2.5;70
61571;BME280;47463;49.884;10.010;2024-03-25T21:55:01;100460;;;2.5;70
61571;BME280;47463;49.884;10.010;2024-03-25T22:00:01;100460;;;2.5;70
61571;BME280;47463;49.884;10.010;2024-03-25T22:05:01;100460;;;2.5;70
61571;BME280;47463;49.884;10.010;2024-03-25T22:10:01;100470;;;2.5;70
61571;BME280;47463;49.884;10.010;2024-03-25T22:15:01;100450;;;2.5;70
61571;BME280;47463;49.884;10.010;2024-03-25T22:20:01;100450;;;2.4;70
61571;BME280;47463;49.884;10.010;2024-03-25T22:25:01;100450;;;2.5;70
61571;BME280;47463;49.884;10.010;2024-03-25T22:30:01;100440;;;2.5;70
61571;BME280;47463;49.884;10.010;2024-03-25T22:35:01;100440;;;2.5;70
61571;BME280;47463;49.884;10.010;2024-03-25T22:40:01;100440;;;2.5;70
61571;BME280;47463;49.884;10.010;2024-03-25T22:45:01;100440;;;2.4;70
61571;BME280;47463;49.884;10.010;2024-03-25T22:50:01;100430;;;2.5;70
61571;BME280;47463;49.884;10.010;2024-03-25T22:55:01;100430;;;2.6;70
61571;BME280;47463;49.884;10.010;2024-03-25T23:00:01;100430;;;2.6;70
61571;BME280;47463;49.884;10.010;2024-03-25T23:05:01;100430;;;2.5;70
61571;BME280;47463;49.884;10.010;2024-03-25T23:10:01;100420;;;2.5;70
61571;BME280;47463;49.884;10.010;2024-03-25T23:15:01;100420;;;2.6;70
61571;BME280;47463;49.884;10.010;2024-03-25T23:20:01;100420;;;2.6;69
61571;BME280;47463;49.884;10.010;2024-03-25T23:25:01;100410;;;2.8;69
61571;BME280;47463;49.884;10.010;2024-03-25T23:30:01;100420;;;2.7;69
61571;BME280;47463;49.884;10.010;2024-03-25T23:35:01;100410;;;2.8;69
61571;BME280;47463;49.884;10.010;2024-03-25T23:40:01;100410;;;2.7;69
61571;BME280;47463;49.884;10.010;2024-03-25T23:45:01;100400;;;2.8;68
61571;BME280;47463;49.884;10.010;2024-03-25T23:50:01;100410;;;2.7;69
61571;BME280;47463;49.884;10.010;2024-03-25T23:55:01;100400;;;2.5;69
